createdAt,value
2018-04-23T00:00:24.830Z,88.30
2018-04-23T00:02:52.302Z,88.30
2018-04-23T00:05:19.788Z,89.20
2018-04-23T00:07:47.279Z,90.00
2018-04-23T00:10:15.528Z,89.40
2018-04-23T00:12:43.062Z,89.40
2018-04-23T00:15:10.551Z,89.50
2018-04-23T00:17:38.016Z,90.00
2018-04-23T00:20:06.273Z,90.80
2018-04-23T00:22:33.715Z,91.00
2018-04-23T00:25:01.208Z,91.10
2018-04-23T00:27:29.470Z,91.20
2018-04-23T00:29:56.924Z,91.30
2018-04-23T00:32:24.472Z,91.40
2018-04-23T00:34:51.986Z,90.60
2018-04-23T00:37:19.475Z,91.30
2018-04-23T00:39:47.007Z,90.70
2018-04-23T00:42:15.245Z,90.90
2018-04-23T00:44:43.459Z,90.90
2018-04-23T00:47:10.915Z,90.90
2018-04-23T00:49:38.444Z,91.40
2018-04-23T00:52:05.935Z,91.80
2018-04-23T00:54:33.446Z,91.50
2018-04-23T00:57:01.718Z,91.90
2018-04-23T00:59:30.020Z,91.80
2018-04-23T01:01:57.525Z,91.60
2018-04-23T01:04:24.999Z,91.90
2018-04-23T01:06:52.464Z,92.00
2018-04-23T01:09:20.768Z,92.20
2018-04-23T01:11:48.274Z,91.90
2018-04-23T01:14:15.766Z,92.40
2018-04-23T01:16:43.306Z,91.90
2018-04-23T01:19:10.777Z,90.50
2018-04-23T01:21:39.059Z,90.10
2018-04-23T01:24:07.323Z,90.10
2018-04-23T01:26:35.595Z,90.80
2018-04-23T01:29:03.877Z,91.60
2018-04-23T01:31:32.111Z,91.90
2018-04-23T01:33:59.602Z,92.00
2018-04-23T01:36:27.082Z,92.00
2018-04-23T01:38:54.561Z,91.90
2018-04-23T01:41:22.070Z,92.30
2018-04-23T01:43:49.570Z,92.20
2018-04-23T01:46:17.068Z,91.80
2018-04-23T01:48:44.555Z,92.30
2018-04-23T01:51:12.840Z,92.60
2018-04-23T01:53:41.097Z,93.00
2018-04-23T01:56:09.319Z,93.80
2018-04-23T01:58:36.821Z,93.90
2018-04-23T02:01:04.314Z,94.30
2018-04-23T02:03:31.836Z,93.70
2018-04-23T02:05:59.295Z,93.60
2018-04-23T02:08:26.807Z,94.00
2018-04-23T02:10:54.321Z,93.80
2018-04-23T02:13:22.542Z,93.20
2018-04-23T02:15:50.069Z,93.30
2018-04-23T02:18:17.579Z,92.80
2018-04-23T02:20:45.035Z,92.90
2018-04-23T02:23:12.504Z,92.60
2018-04-23T02:25:39.992Z,92.40
2018-04-23T02:28:07.481Z,92.80
2018-04-23T02:30:34.972Z,93.20
2018-04-23T02:33:03.277Z,93.30
2018-04-23T02:35:31.531Z,94.30
2018-04-23T02:37:58.999Z,94.30
2018-04-23T02:40:27.260Z,94.20
2018-04-23T02:42:54.776Z,94.30
2018-04-23T02:45:22.321Z,93.60
2018-04-23T02:47:49.808Z,93.90
2018-04-23T02:50:17.296Z,94.00
2018-04-23T02:52:44.769Z,93.20
2018-04-23T02:55:13.003Z,93.10
2018-04-23T02:57:40.531Z,93.10
2018-04-23T03:00:08.043Z,94.20
2018-04-23T03:02:36.283Z,93.80
2018-04-23T03:05:04.504Z,93.80
2018-04-23T03:07:32.748Z,93.70
2018-04-23T03:10:00.179Z,93.80
2018-04-23T03:12:27.632Z,94.40
2018-04-23T03:14:55.279Z,94.70
2018-04-23T03:17:22.766Z,95.10
2018-04-23T03:19:50.238Z,95.60
2018-04-23T03:22:17.771Z,95.70
2018-04-23T03:24:45.261Z,95.50
2018-04-23T03:27:12.776Z,95.60
2018-04-23T03:29:40.310Z,95.40
2018-04-23T03:32:08.632Z,95.00
2018-04-23T03:34:36.081Z,95.00
2018-04-23T03:37:03.543Z,94.80
2018-04-23T03:39:30.999Z,94.90
2018-04-23T03:41:58.519Z,95.20
2018-04-23T03:44:26.067Z,95.70
2018-04-23T03:46:53.567Z,96.50
2018-04-23T03:49:21.012Z,96.40
2018-04-23T03:51:48.500Z,96.60
2018-04-23T03:54:16.033Z,97.20
2018-04-23T03:56:43.520Z,96.90
2018-04-23T03:59:11.016Z,96.80
2018-04-23T04:01:38.542Z,96.80
2018-04-23T04:04:06.000Z,96.80
2018-04-23T04:06:33.508Z,97.20
2018-04-23T04:09:00.996Z,97.40
2018-04-23T04:11:28.471Z,97.20
2018-04-23T04:16:59.447Z,97.00
2018-04-23T04:19:27.750Z,97.10
2018-04-23T04:21:55.287Z,96.80
2018-04-23T04:24:23.531Z,96.90
2018-04-23T04:26:51.000Z,96.70
2018-04-23T04:29:18.546Z,96.90
2018-04-23T04:31:46.060Z,96.80
2018-04-23T04:34:13.607Z,96.60
2018-04-23T04:36:47.255Z,96.60
2018-04-23T04:39:14.878Z,96.40
2018-04-23T04:41:42.392Z,95.70
2018-04-23T04:44:09.872Z,96.40
2018-04-23T04:46:38.075Z,96.50
2018-04-23T04:49:07.456Z,96.60
2018-04-23T04:51:58.188Z,96.60
2018-04-23T04:54:26.691Z,96.20
2018-04-23T04:56:54.167Z,95.90
2018-04-23T04:59:21.642Z,95.60
2018-04-23T05:01:49.112Z,95.50
2018-04-23T05:04:16.569Z,95.80
2018-04-23T05:06:44.053Z,95.70
2018-04-23T05:09:11.534Z,95.70
2018-04-23T05:11:39.070Z,95.60
2018-04-23T05:14:06.988Z,95.90
2018-04-23T05:16:35.211Z,95.80
2018-04-23T05:19:02.711Z,95.80
2018-04-23T05:21:30.950Z,96.70
2018-04-23T05:23:58.466Z,96.30
2018-04-23T05:26:25.929Z,96.20
2018-04-23T05:28:53.425Z,96.60
2018-04-23T05:31:20.906Z,96.70
2018-04-23T05:33:48.430Z,96.50
2018-04-23T05:36:15.904Z,96.00
2018-04-23T05:38:43.439Z,95.60
2018-04-23T05:41:10.992Z,94.50
2018-04-23T05:43:38.485Z,94.70
2018-04-23T05:46:05.924Z,90.90
2018-04-23T05:48:33.362Z,89.40
2018-04-23T05:51:00.828Z,88.60
2018-04-23T05:53:28.327Z,88.10
2018-04-23T05:55:55.777Z,87.70
2018-04-23T05:58:23.215Z,89.20
2018-04-23T06:00:50.742Z,88.90
2018-04-23T06:03:18.224Z,89.10
2018-04-23T06:05:45.711Z,87.40
2018-04-23T06:08:13.171Z,85.60
2018-04-23T06:10:41.456Z,84.40
2018-04-23T06:13:09.005Z,84.40
2018-04-23T06:15:36.483Z,81.90
2018-04-23T06:18:03.943Z,79.50
2018-04-23T06:20:31.475Z,79.90
2018-04-23T06:22:59.767Z,84.20
2018-04-23T06:25:28.010Z,85.60
2018-04-23T06:27:55.471Z,85.80
2018-04-23T06:30:22.942Z,85.40
2018-04-23T06:32:50.419Z,87.90
2018-04-23T06:35:17.949Z,88.40
2018-04-23T06:37:45.498Z,88.40
2018-04-23T06:40:12.991Z,88.80
2018-04-23T06:42:40.450Z,88.00
2018-04-23T06:45:07.928Z,87.90
2018-04-23T06:47:35.439Z,88.80
2018-04-23T06:50:03.694Z,88.20
2018-04-23T06:52:31.203Z,88.40
2018-04-23T06:54:58.694Z,87.70
2018-04-23T06:57:26.211Z,87.90
2018-04-23T06:59:53.658Z,87.20
2018-04-23T07:02:21.895Z,86.10
2018-04-23T07:04:49.450Z,86.30
2018-04-23T07:07:16.909Z,86.10
2018-04-23T07:09:44.423Z,85.70
2018-04-23T07:12:11.955Z,85.40
2018-04-23T07:14:40.251Z,86.40
2018-04-23T07:17:07.800Z,86.60
2018-04-23T07:19:36.087Z,85.10
2018-04-23T07:22:03.543Z,85.20
2018-04-23T07:24:31.044Z,84.40
2018-04-23T07:26:58.539Z,82.60
2018-04-23T07:29:26.799Z,81.10
2018-04-23T07:31:54.270Z,81.00
2018-04-23T07:34:22.566Z,75.20
2018-04-23T07:36:50.060Z,75.30
2018-04-23T07:39:17.579Z,75.60
2018-04-23T07:41:45.114Z,71.50
2018-04-23T07:44:13.379Z,72.70
2018-04-23T07:46:40.903Z,72.80
2018-04-23T07:49:08.402Z,74.40
2018-04-23T07:51:36.673Z,73.30
2018-04-23T07:54:04.211Z,72.90
2018-04-23T07:56:31.700Z,73.30
2018-04-23T07:58:59.984Z,72.40
2018-04-23T08:01:28.250Z,71.60
2018-04-23T08:03:56.531Z,70.90
2018-04-23T08:06:24.786Z,69.10
2018-04-23T08:08:52.304Z,67.70
2018-04-23T08:11:19.776Z,68.40
2018-04-23T08:13:47.255Z,68.00
2018-04-23T08:16:14.749Z,68.20
2018-04-23T08:18:42.258Z,69.00
2018-04-23T08:21:09.788Z,70.00
2018-04-23T08:23:37.320Z,69.40
2018-04-23T08:26:04.835Z,68.60
2018-04-23T08:28:32.396Z,68.10
2018-04-23T08:30:59.895Z,69.30
2018-04-23T08:33:27.448Z,68.00
2018-04-23T08:35:55.734Z,70.10
2018-04-23T08:38:23.220Z,70.10
2018-04-23T08:40:50.741Z,71.50
2018-04-23T08:43:18.273Z,73.00
2018-04-23T08:45:45.743Z,74.10
2018-04-23T08:48:14.034Z,74.90
2018-04-23T08:50:41.528Z,75.00
2018-04-23T08:53:09.031Z,75.30
2018-04-23T08:55:37.311Z,77.70
2018-04-23T08:58:05.547Z,81.70
2018-04-23T09:00:33.067Z,82.00
2018-04-23T09:03:00.537Z,89.80
2018-04-23T09:05:28.067Z,91.70
2018-04-23T09:07:55.651Z,96.10
2018-04-23T09:10:23.167Z,96.40
2018-04-23T09:12:50.654Z,95.90
2018-04-23T09:15:18.184Z,96.40
2018-04-23T09:17:46.469Z,95.80
2018-04-23T09:20:14.763Z,94.50
2018-04-23T09:22:42.285Z,94.60
2018-04-23T09:25:09.792Z,95.70
2018-04-23T09:27:37.318Z,93.30
2018-04-23T09:30:05.594Z,93.10
2018-04-23T09:32:33.114Z,93.40
2018-04-23T09:35:00.640Z,91.30
2018-04-23T09:37:28.158Z,92.00
2018-04-23T09:39:56.440Z,91.10
2018-04-23T09:42:24.655Z,92.10
2018-04-23T09:44:52.143Z,91.20
2018-04-23T09:47:19.624Z,91.30
2018-04-23T09:49:47.872Z,91.20
2018-04-23T09:52:15.402Z,91.30
2018-04-23T09:54:42.918Z,91.60
2018-04-23T09:57:11.184Z,90.20
2018-04-23T09:59:38.698Z,90.20
2018-04-23T10:02:06.196Z,89.40
2018-04-23T10:04:33.683Z,88.90
2018-04-23T10:07:01.192Z,91.10
2018-04-23T10:09:28.700Z,89.80
2018-04-23T10:11:56.204Z,85.70
2018-04-23T10:14:23.731Z,86.10
2018-04-23T10:16:51.255Z,81.90
2018-04-23T10:19:19.498Z,85.40
2018-04-23T10:21:46.971Z,85.50
2018-04-23T10:24:14.447Z,82.70
2018-04-23T10:26:42.706Z,83.40
2018-04-23T10:29:10.219Z,82.80
2018-04-23T10:31:37.676Z,85.70
2018-04-23T10:34:05.147Z,84.40
2018-04-23T10:36:32.643Z,86.90
2018-04-23T10:39:00.961Z,87.70
2018-04-23T10:41:29.162Z,88.20
2018-04-23T10:43:57.239Z,88.40
2018-04-23T10:46:25.211Z,87.30
2018-04-23T10:48:52.677Z,88.70
2018-04-23T10:51:20.963Z,89.80
2018-04-23T10:53:49.229Z,91.00
2018-04-23T10:56:16.703Z,91.00
2018-04-23T10:58:44.964Z,94.00
2018-04-23T11:01:12.433Z,94.40
2018-04-23T11:03:40.718Z,96.10
2018-04-23T11:06:08.240Z,96.10
2018-04-23T11:08:35.710Z,96.00
2018-04-23T11:11:03.932Z,93.90
2018-04-23T11:13:31.419Z,93.90
2018-04-23T11:15:58.870Z,94.70
2018-04-23T11:18:26.352Z,95.70
2018-04-23T11:20:53.871Z,95.20
2018-04-23T11:23:21.371Z,93.80
2018-04-23T11:25:48.848Z,94.40
2018-04-23T11:28:16.325Z,94.30
2018-04-23T11:30:43.820Z,95.40
2018-04-23T11:33:11.362Z,92.90
2018-04-23T11:35:38.864Z,92.90
2018-04-23T11:38:07.138Z,94.80
2018-04-23T11:40:35.415Z,93.20
2018-04-23T11:43:02.892Z,91.50
2018-04-23T11:45:30.712Z,92.10
2018-04-23T11:47:58.247Z,92.50
2018-04-23T11:50:25.754Z,92.00
2018-04-23T11:52:54.035Z,92.10
2018-04-23T11:55:22.299Z,92.40
2018-04-23T11:57:50.554Z,93.40
2018-04-23T12:00:18.053Z,93.40
2018-04-23T12:02:45.541Z,93.70
2018-04-23T12:05:13.022Z,94.50
2018-04-23T12:07:40.556Z,93.50
2018-04-23T12:10:08.095Z,93.30
2018-04-23T12:12:35.615Z,92.50
2018-04-23T12:15:03.133Z,93.80
2018-04-23T12:17:30.643Z,93.80
2018-04-23T12:19:58.907Z,93.80
2018-04-23T12:22:26.437Z,93.30
2018-04-23T12:24:54.007Z,94.10
2018-04-23T12:27:21.543Z,93.30
2018-04-23T12:29:49.062Z,93.40
2018-04-23T12:32:16.592Z,93.20
2018-04-23T12:34:44.886Z,94.00
2018-04-23T12:37:13.176Z,95.40
2018-04-23T12:39:40.727Z,95.30
2018-04-23T12:42:08.215Z,96.80
2018-04-23T12:44:35.723Z,97.10
2018-04-23T12:47:03.955Z,98.30
2018-04-23T12:49:31.484Z,98.40
2018-04-23T12:51:59.034Z,99.60
2018-04-23T12:54:27.259Z,99.90
2018-04-23T12:56:54.720Z,99.90
2018-04-23T12:59:22.188Z,99.90
2018-04-23T13:01:50.447Z,99.90
2018-04-23T13:04:18.000Z,99.90
2018-04-23T13:06:45.471Z,99.90
2018-04-23T13:09:12.962Z,99.90
2018-04-23T13:11:40.428Z,99.90
2018-04-23T13:14:07.909Z,99.90
2018-04-23T13:16:35.394Z,99.90
2018-04-23T13:19:02.891Z,99.90
2018-04-23T13:21:31.099Z,99.90
2018-04-23T13:23:58.647Z,99.90
2018-04-23T13:26:26.076Z,99.90
2018-04-23T13:28:54.355Z,99.90
2018-04-23T13:31:22.636Z,99.90
2018-04-23T13:33:50.863Z,99.90
2018-04-23T13:36:18.335Z,99.90
2018-04-23T13:38:45.856Z,99.90
2018-04-23T13:41:13.369Z,99.90
2018-04-23T13:43:41.647Z,99.90
2018-04-23T13:46:09.103Z,99.90
2018-04-23T13:48:37.399Z,99.90
2018-04-23T13:51:04.924Z,99.90
2018-04-23T13:53:32.441Z,99.90
2018-04-23T13:55:59.955Z,99.90
2018-04-23T13:58:28.201Z,98.30
2018-04-23T14:00:55.735Z,98.30
2018-04-23T14:03:23.203Z,98.20
2018-04-23T14:05:50.721Z,97.20
2018-04-23T14:08:18.227Z,96.30
2018-04-23T14:10:45.752Z,97.60
2018-04-23T14:13:13.271Z,95.50
2018-04-23T14:15:41.563Z,95.30
2018-04-23T14:18:09.096Z,95.40
2018-04-23T14:20:36.562Z,95.00
2018-04-23T14:23:04.794Z,96.40
2018-04-23T14:25:32.316Z,96.40
2018-04-23T14:27:59.832Z,95.30
2018-04-23T14:30:27.299Z,94.60
2018-04-23T14:32:55.588Z,91.90
2018-04-23T14:35:23.877Z,92.40
2018-04-23T14:37:51.364Z,92.40
2018-04-23T14:40:18.895Z,92.40
2018-04-23T14:42:46.425Z,92.40
2018-04-23T14:45:13.944Z,92.10
2018-04-23T14:47:41.457Z,91.60
2018-04-23T14:50:09.709Z,93.30
2018-04-23T14:52:37.183Z,93.30
2018-04-23T14:55:04.707Z,94.90
2018-04-23T14:57:32.201Z,93.40
2018-04-23T15:00:00.479Z,94.10
2018-04-23T15:02:28.729Z,94.40
2018-04-23T15:04:56.252Z,94.40
2018-04-23T15:07:23.774Z,94.20
2018-04-23T15:09:52.071Z,95.10
2018-04-23T15:12:19.584Z,95.20
2018-04-23T15:14:47.047Z,95.30
2018-04-23T15:17:15.299Z,93.20
2018-04-23T15:19:43.296Z,92.10
2018-04-23T15:22:10.807Z,92.50
2018-04-23T15:24:38.263Z,92.10
2018-04-23T15:27:06.339Z,92.10
2018-04-23T15:29:33.808Z,92.50
2018-04-23T15:32:01.522Z,91.80
2018-04-23T15:34:29.038Z,92.30
2018-04-23T15:36:56.568Z,91.90
2018-04-23T15:39:24.044Z,91.70
2018-04-23T15:41:52.496Z,91.90
2018-04-23T15:44:20.003Z,92.20
2018-04-23T15:46:48.296Z,92.80
2018-04-23T15:49:16.587Z,92.60
2018-04-23T15:51:44.195Z,92.70
2018-04-23T15:54:11.915Z,91.90
2018-04-23T15:56:39.431Z,92.50
2018-04-23T15:59:06.879Z,92.70
2018-04-23T16:01:34.339Z,92.70
2018-04-23T16:04:01.832Z,92.60
2018-04-23T16:06:29.312Z,92.70
2018-04-23T16:08:56.827Z,93.30
2018-04-23T16:11:25.063Z,92.60
2018-04-23T16:13:52.570Z,92.70
2018-04-23T16:16:20.061Z,92.30
2018-04-23T16:18:48.297Z,92.70
2018-04-23T16:21:16.556Z,93.20
2018-04-23T16:23:52.076Z,93.20
2018-04-23T16:26:19.567Z,93.20
2018-04-23T16:28:48.531Z,93.50
2018-04-23T16:31:16.029Z,93.50
2018-04-23T16:33:43.741Z,93.40
2018-04-23T16:36:11.238Z,93.60
2018-04-23T16:38:38.819Z,93.80
2018-04-23T16:41:06.355Z,93.90
2018-04-23T16:43:34.616Z,94.10
2018-04-23T16:46:02.127Z,94.20
2018-04-23T16:48:29.611Z,94.00
2018-04-23T16:50:57.089Z,93.80
2018-04-23T16:53:24.575Z,94.30
2018-04-23T16:55:52.055Z,94.00
2018-04-23T16:58:19.532Z,94.00
2018-04-23T17:00:48.552Z,94.20
2018-04-23T17:03:16.306Z,93.90
2018-04-23T17:05:43.794Z,94.00
2018-04-23T17:08:11.273Z,94.30
2018-04-23T17:10:38.800Z,94.80
2018-04-23T17:13:07.219Z,94.30
2018-04-23T17:15:34.747Z,94.00
2018-04-23T17:18:02.307Z,94.00
2018-04-23T17:20:30.590Z,94.10
2018-04-23T17:22:58.115Z,93.80
2018-04-23T17:25:25.623Z,93.60
2018-04-23T17:27:53.115Z,93.40
2018-04-23T17:30:20.656Z,93.30
2018-04-23T17:32:48.156Z,93.20
2018-04-23T17:35:16.450Z,93.10
2018-04-23T17:37:43.995Z,93.20
2018-04-23T17:40:11.512Z,93.00
2018-04-23T17:42:39.483Z,93.20
2018-04-23T17:45:06.954Z,93.00
2018-04-23T17:47:34.493Z,92.40
2018-04-23T17:50:02.041Z,92.00
2018-04-23T17:52:29.570Z,92.00
2018-04-23T17:54:57.088Z,92.40
2018-04-23T17:57:24.625Z,92.20
2018-04-23T17:59:52.126Z,92.50
2018-04-23T18:02:20.447Z,92.20
2018-04-23T18:04:47.980Z,92.20
2018-04-23T18:07:15.495Z,92.50
2018-04-23T18:09:43.015Z,92.40
2018-04-23T18:12:10.540Z,92.50
2018-04-23T18:14:38.079Z,92.50
2018-04-23T18:17:05.600Z,92.80
2018-04-23T18:19:33.099Z,92.80
2018-04-23T18:22:00.547Z,92.70
2018-04-23T18:24:28.066Z,93.20
2018-04-23T18:26:56.359Z,93.70
2018-04-23T18:29:23.861Z,93.80
2018-04-23T18:31:51.407Z,94.10
2018-04-23T18:34:19.687Z,94.70
2018-04-23T18:36:47.953Z,94.60
2018-04-23T18:39:15.440Z,95.00
2018-04-23T18:41:42.970Z,94.30
2018-04-23T18:44:11.286Z,94.50
2018-04-23T18:46:38.818Z,94.50
2018-04-23T18:49:06.313Z,94.60
2018-04-23T18:51:33.814Z,94.30
2018-04-23T18:54:25.088Z,94.60
2018-04-23T18:56:52.623Z,94.10
2018-04-23T18:59:20.178Z,94.50
2018-04-23T19:01:47.714Z,94.60
2018-04-23T19:04:15.984Z,94.70
2018-04-23T19:06:43.539Z,94.70
2018-04-23T19:09:11.011Z,94.30
2018-04-23T19:11:39.296Z,94.00
2018-04-23T19:14:06.802Z,94.00
2018-04-23T19:16:35.113Z,94.00
2018-04-23T19:19:02.656Z,94.00
2018-04-23T19:21:30.585Z,94.20
2018-04-23T19:23:58.099Z,94.30
2018-04-23T19:26:26.018Z,94.40
2018-04-23T19:28:53.538Z,94.10
2018-04-23T19:31:21.072Z,94.10
2018-04-23T19:33:49.352Z,94.10
2018-04-23T19:36:17.703Z,94.10
2018-04-23T19:38:45.242Z,94.20
2018-04-23T19:41:12.758Z,93.80
2018-04-23T19:43:40.308Z,94.10
2018-04-23T19:46:08.645Z,94.20
2018-04-23T19:48:36.147Z,94.20
2018-04-23T19:51:04.471Z,94.30
2018-04-23T19:53:32.006Z,94.30
2018-04-23T19:55:59.531Z,94.10
2018-04-23T19:58:27.078Z,94.70
2018-04-23T20:00:54.614Z,95.10
2018-04-23T20:03:22.152Z,95.30
2018-04-23T20:05:49.624Z,95.80
2018-04-23T20:08:17.155Z,95.90
2018-04-23T20:10:44.671Z,95.30
2018-04-23T20:13:12.206Z,95.60
2018-04-23T20:18:40.608Z,96.30
2018-04-23T20:21:08.075Z,96.50
2018-04-23T20:23:51.110Z,97.00
2018-04-23T20:26:25.352Z,97.40
2018-04-23T20:28:52.917Z,97.10
2018-04-23T20:31:20.375Z,96.10
2018-04-23T20:33:47.897Z,96.30
2018-04-23T20:36:15.440Z,96.20
2018-04-23T20:38:42.972Z,96.80
2018-04-23T20:41:10.459Z,96.30
2018-04-23T20:43:37.987Z,96.70
2018-04-23T20:46:05.482Z,97.40
2018-04-23T20:48:33.005Z,98.20
2018-04-23T20:51:00.501Z,98.50
2018-04-23T20:53:27.993Z,98.90
2018-04-23T20:55:55.476Z,99.00
2018-04-23T20:58:23.003Z,99.30
2018-04-23T21:00:50.535Z,99.20
2018-04-23T21:03:17.987Z,99.10
2018-04-23T21:05:45.509Z,99.30
2018-04-23T21:08:13.036Z,98.70
2018-04-23T21:10:40.531Z,99.00
2018-04-23T21:13:08.052Z,98.50
2018-04-23T21:15:35.585Z,98.80
2018-04-23T21:18:03.117Z,98.40
2018-04-23T21:20:30.611Z,98.80
2018-04-23T21:22:59.253Z,99.20
2018-04-23T21:25:26.780Z,99.10
2018-04-23T21:27:54.739Z,99.30
2018-04-23T21:30:22.323Z,99.30
2018-04-23T21:32:49.851Z,99.40
2018-04-23T21:35:17.372Z,99.90
2018-04-23T21:37:44.922Z,99.80
2018-04-23T21:40:12.415Z,99.90
2018-04-23T21:42:39.968Z,99.80
2018-04-23T21:45:08.244Z,99.90
2018-04-23T21:47:36.516Z,99.90
2018-04-23T21:50:04.797Z,99.90
2018-04-23T21:52:32.323Z,99.70
2018-04-23T21:54:59.867Z,99.90
2018-04-23T21:57:27.417Z,99.90
2018-04-23T21:59:54.900Z,99.90
2018-04-23T22:02:22.394Z,99.90
2018-04-23T22:04:49.958Z,99.90
2018-04-23T22:07:17.479Z,99.90
2018-04-23T22:09:44.983Z,99.90
2018-04-23T22:12:12.472Z,99.90
2018-04-23T22:14:39.951Z,99.90
2018-04-23T22:17:07.468Z,99.90
2018-04-23T22:19:34.955Z,99.90
2018-04-23T22:22:02.400Z,99.90
2018-04-23T22:24:29.926Z,99.90
2018-04-23T22:26:57.436Z,99.90
2018-04-23T22:29:24.956Z,99.90
2018-04-23T22:31:52.483Z,99.90
2018-04-23T22:34:20.006Z,99.90
2018-04-23T22:36:47.508Z,99.90
2018-04-23T22:39:15.024Z,99.90
2018-04-23T22:41:42.546Z,99.90
2018-04-23T22:44:10.059Z,99.90
2018-04-23T22:46:38.333Z,99.90
2018-04-23T22:49:05.871Z,99.90
2018-04-23T22:51:33.351Z,99.90
2018-04-23T22:54:01.643Z,99.90
2018-04-23T22:56:29.175Z,99.90
2018-04-23T22:58:56.707Z,99.90
2018-04-23T23:01:24.221Z,99.90
2018-04-23T23:03:52.068Z,99.90
2018-04-23T23:06:19.591Z,99.90
2018-04-23T23:08:47.124Z,99.90
2018-04-23T23:11:14.608Z,99.90
2018-04-23T23:13:42.082Z,99.90
2018-04-23T23:16:09.593Z,99.90
2018-04-23T23:18:37.056Z,99.90
2018-04-23T23:21:04.571Z,99.90
2018-04-23T23:23:32.858Z,99.90
2018-04-23T23:26:00.379Z,99.90
2018-04-23T23:28:27.827Z,99.90
2018-04-23T23:30:55.285Z,99.90
2018-04-23T23:33:22.810Z,99.90
2018-04-23T23:35:51.051Z,99.90
2018-04-23T23:38:19.301Z,99.90
2018-04-23T23:40:46.823Z,99.90
2018-04-23T23:43:14.330Z,99.90
2018-04-23T23:45:41.851Z,99.90
2018-04-23T23:48:09.400Z,99.90
2018-04-23T23:50:36.899Z,99.90
2018-04-23T23:53:04.367Z,99.90
2018-04-23T23:55:32.667Z,99.90
2018-04-23T23:58:00.190Z,99.90
